Time;durP1;ratioP1;P1;durP2;ratioP2;P2;SDS_P1;SDS_P2;PMS_P1;PMS_P2;Temp;Humidity;BMP_temperature;BMP_pressure;BME280_temperature;BME280_humidity;BME280_pressure;Samples;Min_cycle;Max_cycle;Signal;HPM_P1;HPM_P2
2023/01/11 00:00:57;;;;;;;5.30;1.50;;;;;;;6.67;80.77;100163.50;10393470;28;20064;-70
2023/01/11 00:05:59;;;;;;;5.93;1.57;;;;;;;6.66;80.61;100145.91;10387671;28;20574;-67
2023/01/11 00:11:01;;;;;;;6.40;1.50;;;;;;;6.56;80.91;100136.91;10406059;28;20526;-71
2023/01/11 00:16:07;;;;;;;5.50;2.25;;;;;;;6.69;81.29;100143.06;10412659;28;20506;-70
2023/01/11 00:21:09;;;;;;;7.32;2.08;;;;;;;6.67;81.27;100134.41;10387773;28;24996;-67
2023/01/11 00:26:12;;;;;;;4.03;1.30;;;;;;;6.76;81.09;100134.75;10383949;28;20368;-68
2023/01/11 00:31:13;;;;;;;8.43;1.98;;;;;;;6.79;81.14;100131.91;10395950;28;20368;-69
2023/01/11 00:36:15;;;;;;;6.82;1.20;;;;;;;6.81;81.36;100122.06;10396464;28;20072;-68
2023/01/11 00:51:59;;;;;;;4.53;1.58;;;;;;;6.75;81.11;100099.50;10389674;28;20371;-68
2023/01/11 00:57:00;;;;;;;4.47;1.33;;;;;;;6.79;80.88;100089.56;10387232;28;20060;-69
2023/01/11 01:02:02;;;;;;;4.70;1.10;;;;;;;6.80;81.10;100078.00;10387385;28;20057;-69
2023/01/11 01:07:05;;;;;;;5.45;1.58;;;;;;;6.87;81.25;100089.88;10390999;28;20061;-69
2023/01/11 01:12:08;;;;;;;3.55;1.55;;;;;;;6.89;81.19;100093.25;10394867;28;20052;-66
2023/01/11 01:17:09;;;;;;;4.03;1.33;;;;;;;6.89;81.52;100090.63;10390438;28;20545;-71
2023/01/11 01:22:11;;;;;;;4.82;1.48;;;;;;;6.90;81.21;100097.63;10392677;28;20116;-70
2023/01/11 01:27:15;;;;;;;4.47;1.08;;;;;;;6.98;81.45;100082.09;10386467;28;20083;-69
2023/01/11 01:32:17;;;;;;;2.67;1.27;;;;;;;6.98;82.00;100071.50;10389221;28;20107;-70
2023/01/11 01:37:18;;;;;;;5.32;1.23;;;;;;;6.97;82.54;100087.47;10386893;28;20064;-69
2023/01/11 01:42:20;;;;;;;3.63;0.85;;;;;;;7.04;82.48;100078.16;10386599;28;20586;-69
2023/01/11 01:47:49;;;;;;;4.22;1.17;;;;;;;7.13;82.70;100084.59;10383529;28;20042;-70
2023/01/11 01:52:56;;;;;;;3.80;0.95;;;;;;;7.05;84.18;100082.50;10379837;28;20050;-68
2023/01/11 01:57:59;;;;;;;3.78;1.40;;;;;;;7.01;85.84;100081.88;10382481;28;20435;-70
2023/01/11 02:03:01;;;;;;;4.80;1.40;;;;;;;7.06;86.05;100079.75;10388521;28;20346;-69
2023/01/11 02:08:09;;;;;;;6.38;1.25;;;;;;;7.11;85.88;100074.13;10394617;28;20061;-70
2023/01/11 02:13:13;;;;;;;6.00;1.38;;;;;;;7.21;85.74;100066.41;10383649;28;20186;-67
2023/01/11 02:18:14;;;;;;;3.35;1.08;;;;;;;7.25;85.85;100065.22;10390030;28;20053;-70
2023/01/11 02:23:37;;;;;;;5.13;1.67;;;;;;;7.19;85.97;100052.41;10390686;28;20073;-69
2023/01/11 02:28:55;;;;;;;5.93;1.33;;;;;;;7.21;86.28;100037.28;10392276;28;20510;-70
2023/01/11 02:34:05;;;;;;;3.40;1.40;;;;;;;7.13;87.31;100023.72;10397669;28;20420;-70
2023/01/11 02:39:31;;;;;;;2.78;1.20;;;;;;;7.11;87.94;100023.00;10399813;28;20420;-72
2023/01/11 02:50:15;;;;;;;3.53;1.80;;;;;;;7.21;89.88;100029.34;10399829;28;19939;-71
2023/01/11 02:55:24;;;;;;;4.72;1.55;;;;;;;7.21;91.05;100029.34;10390844;28;20292;-68
2023/01/11 03:00:26;;;;;;;5.38;1.40;;;;;;;7.16;92.19;100021.72;10400685;28;20582;-70
2023/01/11 03:05:27;;;;;;;3.58;1.38;;;;;;;7.20;92.19;99995.88;10387933;28;20663;-69
2023/01/11 03:10:38;;;;;;;5.78;1.33;;;;;;;7.18;91.93;99984.56;10393968;28;20132;-66
2023/01/11 03:16:00;;;;;;;2.60;1.30;;;;;;;7.27;91.87;99989.19;10388475;28;20053;-68
2023/01/11 03:21:37;;;;;;;7.03;1.83;;;;;;;7.29;90.95;99974.03;10399764;28;20053;-69
2023/01/11 03:26:42;;;;;;;4.40;1.25;;;;;;;7.30;91.05;99961.66;10385670;28;20047;-68
2023/01/11 03:32:06;;;;;;;3.95;1.60;;;;;;;7.31;91.59;99961.56;10387602;28;20221;-71
2023/01/11 03:37:26;;;;;;;3.08;1.67;;;;;;;7.31;92.69;99960.69;10395187;28;20116;-68
2023/01/11 03:42:29;;;;;;;3.90;1.85;;;;;;;7.34;92.74;99939.28;10391597;28;20302;-68
2023/01/11 03:47:33;;;;;;;3.25;1.08;;;;;;;7.38;92.67;99946.91;10394249;28;20077;-66
2023/01/11 03:52:38;;;;;;;3.58;1.35;;;;;;;7.52;92.17;99942.41;10391468;28;20522;-68
2023/01/11 03:57:46;;;;;;;5.05;1.45;;;;;;;7.50;91.93;99936.38;10396792;28;20049;-68
2023/01/11 04:02:48;;;;;;;3.65;1.33;;;;;;;7.58;92.49;99928.72;10386688;28;20714;-67
2023/01/11 04:07:50;;;;;;;3.03;1.25;;;;;;;7.55;93.80;99911.25;10387808;28;20156;-68
2023/01/11 04:12:51;;;;;;;6.03;1.88;;;;;;;7.57;95.28;99921.75;10388657;28;20193;-69
2023/01/11 04:17:53;;;;;;;2.58;1.38;;;;;;;7.64;95.49;99917.69;10392410;28;20458;-68
2023/01/11 04:22:54;;;;;;;2.97;1.10;;;;;;;7.62;96.19;99901.03;10417695;28;20083;-66
2023/01/11 04:27:56;;;;;;;2.15;0.90;;;;;;;7.62;96.88;99895.75;10389815;28;20041;-67
2023/01/11 04:32:58;;;;;;;3.08;1.45;;;;;;;7.65;98.72;99895.53;10383379;28;20061;-67
2023/01/11 04:37:59;;;;;;;5.75;2.20;;;;;;;7.62;100.00;99874.56;10385835;28;20054;-68
2023/01/11 04:43:01;;;;;;;2.40;1.30;;;;;;;7.64;100.00;99877.97;10387011;28;20076;-67
2023/01/11 04:48:02;;;;;;;3.60;1.35;;;;;;;7.60;100.00;99873.84;10391452;28;20049;-68
2023/01/11 04:53:04;;;;;;;3.95;1.10;;;;;;;7.65;100.00;99873.50;10385716;28;20369;-67
2023/01/11 04:58:05;;;;;;;2.80;1.10;;;;;;;7.68;100.00;99878.56;10389044;28;20411;-67
2023/01/11 05:03:06;;;;;;;4.68;1.40;;;;;;;7.76;100.00;99873.53;10386151;28;20140;-68
2023/01/11 05:08:08;;;;;;;3.47;1.63;;;;;;;7.78;100.00;99861.84;10389698;28;20101;-67
2023/01/11 05:13:09;;;;;;;2.05;1.20;;;;;;;7.86;100.00;99855.97;10390838;28;20056;-68
2023/01/11 05:18:10;;;;;;;1.98;1.05;;;;;;;7.86;100.00;99857.78;10406576;28;20049;-70
2023/01/11 05:23:12;;;;;;;3.30;1.40;;;;;;;7.82;100.00;99856.31;10406810;28;20416;-67
2023/01/11 05:28:13;;;;;;;3.20;1.42;;;;;;;7.92;100.00;99858.16;10387802;28;20582;-68
2023/01/11 05:33:14;;;;;;;3.70;1.40;;;;;;;7.95;100.00;99847.31;10391709;28;20046;-68
2023/01/11 05:38:16;;;;;;;3.72;1.40;;;;;;;7.98;100.00;99840.94;10390339;28;20057;-69
2023/01/11 05:43:17;;;;;;;2.35;1.40;;;;;;;7.94;100.00;99834.19;10391724;28;20779;-68
2023/01/11 05:48:19;;;;;;;3.40;1.30;;;;;;;7.88;100.00;99839.97;10387308;28;20057;-66
2023/01/11 05:53:22;;;;;;;2.47;1.30;;;;;;;7.95;100.00;99834.06;10402930;28;20049;-67
2023/01/11 05:58:25;;;;;;;2.15;0.98;;;;;;;7.93;100.00;99824.56;10399944;28;20135;-66
2023/01/11 06:03:27;;;;;;;2.38;1.13;;;;;;;7.94;100.00;99816.50;10390805;28;20056;-69
2023/01/11 06:08:28;;;;;;;5.45;1.05;;;;;;;7.95;100.00;99823.47;10395650;28;20523;-70
2023/01/11 06:13:32;;;;;;;4.13;0.82;;;;;;;8.00;100.00;99816.97;10398260;28;20071;-67
2023/01/11 06:18:39;;;;;;;2.07;1.10;;;;;;;8.02;100.00;99815.91;10396212;28;20128;-69
2023/01/11 06:23:44;;;;;;;2.05;1.00;;;;;;;7.91;100.00;99802.63;10397366;28;20042;-69
2023/01/11 06:28:45;;;;;;;;;;;;;;;8.04;100.00;99806.03;10414028;28;20128;-70
2023/01/11 06:33:47;;;;;;;4.03;1.83;;;;;;;7.98;100.00;99795.91;10390659;28;19925;-68
2023/01/11 06:38:48;;;;;;;1.60;1.27;;;;;;;7.93;100.00;99782.16;10389765;28;20496;-69
2023/01/11 06:43:50;;;;;;;2.05;1.10;;;;;;;7.94;100.00;99783.84;10384657;28;20060;-67
2023/01/11 06:48:51;;;;;;;4.65;1.80;;;;;;;7.97;100.00;99780.94;10391052;28;20061;-65
2023/01/11 06:53:52;;;;;;;2.20;1.48;;;;;;;8.02;100.00;99776.16;10391187;28;20104;-67
2023/01/11 06:58:54;;;;;;;2.97;1.80;;;;;;;8.07;100.00;99773.97;10390064;28;20052;-67
2023/01/11 07:03:55;;;;;;;2.35;1.95;;;;;;;8.08;100.00;99774.84;10390033;28;20483;-67
2023/01/11 07:08:57;;;;;;;5.15;2.08;;;;;;;8.09;100.00;99782.66;10390894;28;20963;-68
2023/01/11 07:13:58;;;;;;;3.63;1.77;;;;;;;8.20;100.00;99781.00;10391234;28;20056;-66
2023/01/11 07:19:00;;;;;;;5.18;2.13;;;;;;;8.23;100.00;99772.78;10385990;28;20733;-69
2023/01/11 07:24:01;;;;;;;4.28;2.92;;;;;;;8.29;100.00;99777.63;10400930;28;20083;-71
2023/01/11 07:29:03;;;;;;;4.18;2.67;;;;;;;8.30;100.00;99784.59;10395981;28;20053;-73
2023/01/11 07:34:04;;;;;;;2.85;2.17;;;;;;;8.32;100.00;99772.91;10398752;28;20111;-71
2023/01/11 07:39:06;;;;;;;2.50;1.85;;;;;;;8.36;100.00;99781.47;10396916;28;20055;-72
2023/01/11 07:44:07;;;;;;;2.85;1.65;;;;;;;8.37;100.00;99785.78;10398687;28;20104;-67
2023/01/11 07:49:09;;;;;;;4.50;1.83;;;;;;;8.63;100.00;99782.91;10397141;28;20737;-67
2023/01/11 07:54:11;;;;;;;2.75;1.60;;;;;;;8.75;100.00;99774.00;10396571;28;20056;-69
2023/01/11 07:59:12;;;;;;;2.38;1.67;;;;;;;8.93;100.00;99792.03;10399351;28;20085;-68
2023/01/11 08:04:13;;;;;;;3.92;1.98;;;;;;;8.88;100.00;99788.91;10406065;28;20076;-68
2023/01/11 08:09:15;;;;;;;3.35;1.98;;;;;;;9.05;100.00;99790.19;10408820;28;20127;-70
2023/01/11 08:19:37;;;;;;;2.17;1.88;;;;;;;8.70;100.00;99776.16;10404038;28;20163;-68
2023/01/11 08:24:38;;;;;;;1.83;1.73;;;;;;;8.68;100.00;99772.78;10418319;28;20041;-66
2023/01/11 08:29:42;;;;;;;3.83;2.13;;;;;;;8.74;100.00;99772.28;10407029;28;20049;-66
2023/01/11 08:34:44;;;;;;;2.72;2.05;;;;;;;8.76;100.00;99757.09;10396930;28;20042;-66
2023/01/11 08:39:47;;;;;;;3.08;2.38;;;;;;;8.84;100.00;99767.06;10407473;28;20051;-67
2023/01/11 08:44:49;;;;;;;2.80;1.88;;;;;;;8.86;100.00;99762.50;10401532;28;20140;-68
2023/01/11 08:49:50;;;;;;;5.47;3.10;;;;;;;8.86;100.00;99775.78;10395857;28;20052;-66
2023/01/11 08:54:52;;;;;;;3.45;2.45;;;;;;;8.85;100.00;99774.91;10399394;28;20067;-68
2023/01/11 08:59:53;;;;;;;3.67;1.98;;;;;;;8.89;100.00;99778.19;10395545;28;20057;-68
2023/01/11 09:04:54;;;;;;;2.20;2.00;;;;;;;8.89;100.00;99779.97;10397719;28;20079;-68
2023/01/11 09:09:56;;;;;;;3.53;2.60;;;;;;;8.92;100.00;99779.75;10412407;28;20062;-68
2023/01/11 09:14:57;;;;;;;3.28;2.97;;;;;;;8.93;100.00;99776.09;10398238;28;20049;-67
2023/01/11 09:19:59;;;;;;;3.00;2.53;;;;;;;8.96;100.00;99766.09;10398185;28;20155;-67
2023/01/11 09:25:00;;;;;;;2.47;2.13;;;;;;;8.98;100.00;99776.59;10396629;28;20133;-67
2023/01/11 09:30:03;;;;;;;3.90;2.30;;;;;;;8.95;100.00;99775.03;10398653;28;20049;-68
2023/01/11 09:35:05;;;;;;;2.63;2.25;;;;;;;8.93;100.00;99773.44;10396543;28;20049;-70
2023/01/11 09:40:15;;;;;;;2.67;2.47;;;;;;;9.00;100.00;99777.31;10395543;28;20144;-70
2023/01/11 09:45:22;;;;;;;3.03;2.70;;;;;;;9.05;100.00;99783.06;10393035;28;20044;-70
2023/01/11 09:50:27;;;;;;;3.88;3.03;;;;;;;9.05;100.00;99785.72;10394068;28;20059;-71
2023/01/11 09:55:39;;;;;;;3.58;3.03;;;;;;;9.07;100.00;99786.47;10391166;28;20844;-74
2023/01/11 10:00:59;;;;;;;2.83;2.47;;;;;;;9.17;100.00;99784.75;10386253;28;20049;-71
2023/01/11 10:06:27;;;;;;;3.20;2.90;;;;;;;9.23;100.00;99785.19;10394229;28;20128;-73
2023/01/11 10:12:11;;;;;;;3.30;2.25;;;;;;;9.17;100.00;99779.44;10415596;28;20041;-68
2023/01/11 10:18:21;;;;;;;2.63;2.40;;;;;;;9.19;100.00;99769.50;10400721;28;20537;-70
2023/01/11 10:23:52;;;;;;;2.45;2.25;;;;;;;9.24;100.00;99778.91;10375562;28;20048;-72
2023/01/11 10:45:26;;;;;;;3.08;2.20;;;;;;;9.28;100.00;99781.19;10395239;28;20045;-70
2023/01/11 10:50:50;;;;;;;3.13;2.47;;;;;;;9.29;100.00;99787.34;10405275;28;20171;-70
2023/01/11 10:56:22;;;;;;;2.80;2.00;;;;;;;9.35;100.00;99800.97;10391945;28;20053;-71
2023/01/11 11:01:47;;;;;;;2.58;1.92;;;;;;;9.43;100.00;99808.31;10396745;28;20053;-70
2023/01/11 11:06:52;;;;;;;1.90;1.70;;;;;;;9.39;100.00;99804.22;10387117;28;20057;-69
2023/01/11 11:12:00;;;;;;;3.08;2.88;;;;;;;9.45;100.00;99801.03;10394608;28;20045;-70
2023/01/11 11:17:20;;;;;;;2.10;1.90;;;;;;;9.55;100.00;99799.31;10395468;28;20144;-71
2023/01/11 11:22:22;;;;;;;2.55;2.30;;;;;;;9.53;100.00;99780.00;10393371;28;20103;-72
2023/01/11 11:27:26;;;;;;;2.65;2.35;;;;;;;9.86;100.00;99764.84;10389757;28;20167;-66
2023/01/11 11:32:36;;;;;;;2.65;2.45;;;;;;;10.03;100.00;99770.53;10389271;28;20058;-66
2023/01/11 11:37:44;;;;;;;1.63;1.52;;;;;;;10.15;100.00;99774.78;10396483;28;20526;-67
2023/01/11 11:42:46;;;;;;;4.13;1.60;;;;;;;10.19;100.00;99773.56;10386716;28;20311;-67
2023/01/11 11:48:00;;;;;;;2.60;1.60;;;;;;;10.24;100.00;99763.34;10378917;28;20412;-69
2023/01/11 11:53:03;;;;;;;1.43;1.13;;;;;;;10.41;100.00;99763.72;10387671;28;20089;-67
2023/01/11 11:58:11;;;;;;;2.43;1.10;;;;;;;10.52;100.00;99758.28;10406106;28;20133;-65
2023/01/11 12:03:29;;;;;;;1.67;1.00;;;;;;;10.75;100.00;99766.06;10390720;28;20133;-68
2023/01/11 12:08:32;;;;;;;1.52;1.00;;;;;;;10.77;100.00;99780.06;10386585;28;20052;-67
2023/01/11 12:13:36;;;;;;;1.97;1.77;;;;;;;10.60;100.00;99789.56;10385792;28;20071;-65
2023/01/11 12:18:41;;;;;;;1.02;0.57;;;;;;;10.53;100.00;99789.25;10382293;28;20507;-67
2023/01/11 12:23:43;;;;;;;1.83;1.00;;;;;;;10.41;100.00;99785.00;10390522;28;20130;-67
2023/01/11 12:28:59;;;;;;;1.50;0.80;;;;;;;10.33;100.00;99793.66;10395624;28;20415;-66
2023/01/11 12:34:24;;;;;;;1.60;0.80;;;;;;;10.29;100.00;99786.88;10385563;28;20073;-68
2023/01/11 12:39:38;;;;;;;2.35;0.70;;;;;;;10.33;100.00;99782.13;10390832;28;20048;-67
2023/01/11 12:45:06;;;;;;;1.55;0.70;;;;;;;10.27;100.00;99767.56;10390033;28;20178;-68
2023/01/11 12:50:20;;;;;;;1.55;0.77;;;;;;;10.31;100.00;99770.78;10389985;28;20108;-67
2023/01/11 12:55:59;;;;;;;2.87;0.97;;;;;;;10.48;100.00;99783.50;10391977;28;20185;-68
2023/01/11 13:01:11;;;;;;;1.88;0.63;;;;;;;10.56;100.00;99796.13;10416151;28;20057;-68
2023/01/11 13:06:20;;;;;;;1.60;0.70;;;;;;;10.48;100.00;99806.59;10409905;28;20070;-70
2023/01/11 13:11:47;;;;;;;1.17;0.70;;;;;;;10.41;100.00;99823.09;10391814;28;20052;-68
2023/01/11 13:17:26;;;;;;;1.13;0.70;;;;;;;10.42;100.00;99818.63;10386097;28;20041;-69
2023/01/11 13:22:33;;;;;;;1.90;1.10;;;;;;;10.50;100.00;99818.78;10387284;28;20400;-70
2023/01/11 13:27:34;;;;;;;1.00;0.80;;;;;;;10.55;100.00;99805.94;10393947;28;20060;-68
2023/01/11 13:32:38;;;;;;;2.65;1.58;;;;;;;10.41;100.00;99800.97;10389022;28;20582;-68
2023/01/11 13:37:43;;;;;;;;;;;;;;;10.47;100.00;99820.88;10385592;28;20100;-67
2023/01/11 13:42:53;;;;;;;0.80;0.40;;;;;;;10.48;100.00;99812.78;10403748;28;20011;-69
2023/01/11 13:48:10;;;;;;;0.80;0.50;;;;;;;10.53;100.00;99815.03;10393271;28;20574;-67
2023/01/11 13:53:35;;;;;;;2.10;0.77;;;;;;;10.58;100.00;99824.31;10381574;28;20049;-67
2023/01/11 13:58:58;;;;;;;1.42;1.10;;;;;;;10.70;100.00;99842.81;10394510;28;21154;-66
2023/01/11 14:04:06;;;;;;;1.90;0.70;;;;;;;10.63;100.00;99846.97;10384284;28;20053;-67
2023/01/11 14:09:14;;;;;;;1.27;0.82;;;;;;;10.67;100.00;99859.06;10384338;28;20094;-69
2023/01/11 14:14:31;;;;;;;1.35;0.82;;;;;;;10.73;100.00;99861.19;10387151;28;20052;-70
2023/01/11 14:19:43;;;;;;;2.58;1.10;;;;;;;10.69;100.00;99865.06;10390688;28;20392;-68
2023/01/11 14:25:13;;;;;;;2.42;0.95;;;;;;;10.63;100.00;99869.16;10386270;28;20136;-67
2023/01/11 14:30:24;;;;;;;1.55;0.90;;;;;;;10.60;100.00;99880.06;10363979;28;20061;-66
2023/01/11 14:36:02;;;;;;;2.25;1.00;;;;;;;10.60;99.78;99886.22;10387440;28;20567;-67
2023/01/11 14:41:41;;;;;;;2.00;1.02;;;;;;;10.57;100.00;99902.44;10392097;28;20052;-66
2023/01/11 14:47:05;;;;;;;3.03;1.35;;;;;;;10.59;100.00;99916.47;10394231;28;20126;-66
2023/01/11 14:52:15;;;;;;;3.67;1.27;;;;;;;10.62;100.00;99928.66;10393272;28;20579;-67
2023/01/11 14:57:40;;;;;;;2.90;1.00;;;;;;;10.65;98.11;99943.53;10411374;28;20456;-68
2023/01/11 15:02:41;;;;;;;3.42;1.20;;;;;;;10.58;96.58;99956.50;10385379;28;20045;-70
2023/01/11 15:07:49;;;;;;;2.53;1.15;;;;;;;10.52;95.61;99968.50;10401357;28;20052;-67
2023/01/11 15:12:55;;;;;;;4.13;1.25;;;;;;;10.46;93.10;99979.69;10399617;28;20079;-69
2023/01/11 15:23:19;;;;;;;2.75;1.30;;;;;;;10.36;88.41;99992.94;10397283;28;20052;-72
2023/01/11 15:28:39;;;;;;;;;;;;;;;10.35;88.78;99993.06;10390231;28;20048;-70
2023/01/11 15:33:47;;;;;;;4.47;1.40;;;;;;;10.46;89.93;100014.28;10394697;28;19960;-69
2023/01/11 15:39:01;;;;;;;8.82;2.50;;;;;;;10.46;88.10;100019.59;10405981;28;25289;-70
2023/01/11 15:44:44;;;;;;;6.65;2.08;;;;;;;10.46;89.48;100032.06;10398915;28;20056;-71
2023/01/11 15:50:14;;;;;;;5.80;1.95;;;;;;;10.32;88.45;100030.53;10394537;28;20044;-70
2023/01/11 15:55:33;;;;;;;7.07;4.25;;;;;;;10.36;88.68;100038.16;10396223;28;20048;-69
2023/01/11 16:00:44;;;;;;;5.45;1.83;;;;;;;10.26;85.41;100038.03;10397081;28;20052;-68
2023/01/11 16:06:06;;;;;;;5.07;1.45;;;;;;;10.15;86.78;100040.75;10396132;28;20059;-68
2023/01/11 16:11:40;;;;;;;6.32;1.30;;;;;;;10.11;83.41;100049.13;10413028;28;20041;-72
2023/01/11 16:16:42;;;;;;;4.75;1.42;;;;;;;10.01;82.42;100055.19;10453555;28;20041;-69
2023/01/11 16:21:48;;;;;;;5.93;1.95;;;;;;;9.99;81.90;100059.75;10422083;28;20071;-71
2023/01/11 16:26:57;;;;;;;6.07;1.33;;;;;;;9.90;80.71;100058.69;10429301;28;20121;-70
2023/01/11 16:32:03;;;;;;;5.93;1.40;;;;;;;9.81;76.98;100059.44;10425318;28;20057;-71
2023/01/11 16:37:36;;;;;;;4.18;1.50;;;;;;;9.77;77.55;100073.94;10420020;28;20049;-69
2023/01/11 16:43:18;;;;;;;8.25;2.20;;;;;;;9.75;76.50;100091.00;10399435;28;20080;-71
2023/01/11 16:48:22;;;;;;;7.28;1.90;;;;;;;9.73;77.58;100093.78;10387005;28;20053;-68
2023/01/11 16:53:25;;;;;;;10.83;2.60;;;;;;;9.69;76.97;100093.16;10398628;28;20045;-70
2023/01/11 16:58:29;;;;;;;10.88;2.70;;;;;;;9.64;77.94;100094.50;10401602;28;20191;-70
2023/01/11 17:03:32;;;;;;;5.28;2.33;;;;;;;9.59;80.56;100102.81;10394822;28;20052;-69
2023/01/11 17:08:36;;;;;;;9.13;2.40;;;;;;;9.58;79.43;100105.59;10395234;28;20049;-68
2023/01/11 17:14:23;;;;;;;6.23;2.37;;;;;;;9.54;81.89;100121.78;10393226;28;20069;-70
2023/01/11 17:19:28;;;;;;;7.03;2.53;;;;;;;9.45;81.24;100127.00;10397343;28;20560;-69
2023/01/11 17:24:35;;;;;;;7.97;2.85;;;;;;;9.43;81.90;100139.53;10388720;28;20158;-68
2023/01/11 17:29:38;;;;;;;7.13;2.78;;;;;;;9.36;80.13;100147.13;10393070;28;20275;-70
2023/01/11 17:34:41;;;;;;;6.22;2.53;;;;;;;9.28;78.73;100158.34;10389836;28;20049;-68
2023/01/11 17:39:49;;;;;;;8.93;2.95;;;;;;;9.27;80.16;100158.47;10389971;28;20044;-68
2023/01/11 17:50:31;;;;;;;5.32;2.78;;;;;;;9.19;78.54;100181.16;10401287;28;21578;-69
2023/01/11 17:55:33;;;;;;;8.02;3.65;;;;;;;9.17;79.04;100174.25;10402385;28;20542;-68
2023/01/11 18:00:35;;;;;;;9.13;3.08;;;;;;;9.02;79.26;100182.44;10400953;28;20049;-71
2023/01/11 18:05:36;;;;;;;10.82;2.47;;;;;;;8.97;79.37;100192.53;10399319;28;20135;-69
2023/01/11 18:10:39;;;;;;;9.23;2.50;;;;;;;8.84;80.37;100197.94;10407920;28;20124;-69
2023/01/11 18:15:46;;;;;;;9.40;2.92;;;;;;;8.75;81.02;100203.91;10404783;28;20151;-69
2023/01/11 18:20:47;;;;;;;8.90;2.17;;;;;;;8.67;81.15;100222.19;10409940;28;20040;-69
2023/01/11 18:25:49;;;;;;;8.85;3.38;;;;;;;8.62;81.59;100229.66;10410669;28;20202;-69
2023/01/11 18:30:57;;;;;;;8.90;3.35;;;;;;;8.63;82.12;100236.63;10417791;28;20180;-70
2023/01/11 18:36:01;;;;;;;10.25;3.45;;;;;;;8.59;82.44;100243.16;10430804;28;20068;-70
2023/01/11 18:46:28;;;;;;;4.25;2.35;;;;;;;8.49;82.28;100257.06;10422333;28;20096;-72
2023/01/11 18:51:35;;;;;;;8.75;2.50;;;;;;;8.45;82.85;100244.13;10417675;28;20053;-70
2023/01/11 18:56:37;;;;;;;9.77;3.28;;;;;;;8.44;82.46;100243.28;10415876;28;20124;-70
2023/01/11 19:01:38;;;;;;;10.20;3.40;;;;;;;8.36;82.55;100244.75;10408393;28;20060;-68
2023/01/11 19:07:00;;;;;;;9.70;2.67;;;;;;;8.28;83.17;100242.66;10412275;28;20547;-71
2023/01/11 19:12:01;;;;;;;10.15;2.58;;;;;;;8.29;82.23;100258.44;10405709;28;20069;-69
2023/01/11 19:17:03;;;;;;;6.97;2.92;;;;;;;8.32;82.46;100270.66;10400302;28;20068;-71
2023/01/11 19:22:05;;;;;;;8.48;3.03;;;;;;;8.32;82.45;100279.44;10408483;28;20060;-72
2023/01/11 19:27:06;;;;;;;9.25;3.17;;;;;;;8.25;83.29;100295.91;10406580;28;20055;-72
2023/01/11 19:32:08;;;;;;;12.35;2.97;;;;;;;8.12;83.51;100296.78;10407465;28;20159;-71
2023/01/11 19:37:09;;;;;;;6.78;2.67;;;;;;;8.08;83.83;100295.28;10408042;28;20087;-71
2023/01/11 19:42:11;;;;;;;7.50;3.00;;;;;;;8.08;84.07;100292.63;10408403;28;20066;-70
2023/01/11 19:47:14;;;;;;;7.45;2.92;;;;;;;7.97;84.11;100297.81;10406384;28;20042;-72
2023/01/11 19:52:19;;;;;;;9.97;3.30;;;;;;;7.99;84.83;100295.91;10401961;28;20392;-68
2023/01/11 19:57:21;;;;;;;8.85;3.53;;;;;;;7.99;84.97;100292.41;10405426;28;20057;-73
2023/01/11 20:02:23;;;;;;;8.35;2.88;;;;;;;7.94;84.64;100288.28;10420399;28;20123;-72
2023/01/11 20:07:24;;;;;;;10.48;3.08;;;;;;;7.84;84.62;100295.16;10418019;28;20072;-73
2023/01/11 20:12:26;;;;;;;8.40;2.42;;;;;;;7.88;85.14;100290.50;10445274;28;20052;-72
2023/01/11 20:17:28;;;;;;;6.22;2.42;;;;;;;7.85;84.91;100277.44;10401300;28;20084;-72
2023/01/11 20:22:30;;;;;;;6.53;2.70;;;;;;;7.88;84.58;100279.91;10401050;28;20049;-72
2023/01/11 20:27:32;;;;;;;6.78;2.55;;;;;;;7.91;84.18;100282.34;10399207;28;20120;-69
2023/01/11 20:32:35;;;;;;;7.97;2.20;;;;;;;7.81;84.19;100297.16;10392975;28;20108;-70
2023/01/11 20:37:42;;;;;;;8.88;2.88;;;;;;;7.69;84.28;100283.81;10403296;28;20041;-71
2023/01/11 20:42:44;;;;;;;9.80;2.45;;;;;;;7.69;84.83;100288.28;10400218;28;20063;-71
2023/01/11 20:47:45;;;;;;;7.75;2.75;;;;;;;7.62;84.68;100282.53;10409923;28;20053;-71
2023/01/11 20:52:48;;;;;;;10.52;2.53;;;;;;;7.60;84.65;100272.03;10430603;28;20064;-69
2023/01/11 20:57:50;;;;;;;5.90;2.15;;;;;;;7.58;84.38;100255.41;10432427;28;20056;-72
2023/01/11 21:02:51;;;;;;;9.43;2.28;;;;;;;7.68;83.97;100255.63;10412286;28;20072;-72
2023/01/11 21:07:53;;;;;;;7.10;2.45;;;;;;;7.61;83.59;100249.03;10427289;28;20079;-69
2023/01/11 21:12:56;;;;;;;9.57;2.70;;;;;;;7.59;84.10;100241.19;10406063;28;20354;-71
2023/01/11 21:17:57;;;;;;;6.45;1.98;;;;;;;7.51;84.08;100237.38;10404215;28;20470;-74
2023/01/11 21:22:59;;;;;;;6.38;2.85;;;;;;;7.50;84.21;100251.56;10410645;28;20454;-72
2023/01/11 21:28:02;;;;;;;6.65;2.50;;;;;;;7.57;84.50;100259.00;10408943;28;20055;-71
2023/01/11 21:33:04;;;;;;;7.47;2.25;;;;;;;7.52;84.79;100244.34;10412455;28;20048;-73
2023/01/11 21:38:05;;;;;;;9.35;2.08;;;;;;;7.52;83.85;100237.28;10410562;28;20076;-69
2023/01/11 21:43:07;;;;;;;10.88;2.33;;;;;;;7.49;84.46;100231.31;10395656;28;20053;-70
2023/01/11 21:48:08;;;;;;;8.10;2.17;;;;;;;7.47;84.72;100235.91;10413409;28;20099;-71
2023/01/11 21:53:10;;;;;;;7.82;2.30;;;;;;;7.43;85.19;100240.53;10405722;28;20064;-70
2023/01/11 21:58:11;;;;;;;10.13;2.47;;;;;;;7.42;85.53;100245.00;10395833;28;20046;-69
2023/01/11 22:03:12;;;;;;;6.18;1.85;;;;;;;7.48;85.11;100233.13;10392404;28;20056;-69
2023/01/11 22:08:14;;;;;;;6.22;2.30;;;;;;;7.41;85.41;100237.16;10386332;28;20053;-72
2023/01/11 22:13:15;;;;;;;8.70;2.17;;;;;;;7.40;85.96;100233.66;10390717;28;20050;-72
2023/01/11 22:18:16;;;;;;;7.32;2.20;;;;;;;7.51;86.05;100261.22;10385130;28;20065;-73
2023/01/11 22:23:18;;;;;;;8.50;2.30;;;;;;;7.51;86.36;100263.88;10387075;28;20056;-69
2023/01/11 22:28:19;;;;;;;9.48;2.30;;;;;;;7.53;86.56;100272.56;10387485;28;20191;-69
2023/01/11 22:33:22;;;;;;;5.63;1.95;;;;;;;7.61;86.78;100264.94;10390588;28;20060;-71
2023/01/11 22:38:24;;;;;;;8.18;2.03;;;;;;;7.67;86.05;100243.34;10397528;28;20127;-71
2023/01/11 22:43:25;;;;;;;9.18;2.33;;;;;;;7.66;86.00;100238.97;10396785;28;20076;-69
2023/01/11 22:48:27;;;;;;;7.35;1.95;;;;;;;7.64;86.50;100238.25;10397227;28;20083;-71
2023/01/11 22:53:29;;;;;;;6.45;2.00;;;;;;;7.63;86.23;100244.50;10392993;28;20729;-69
2023/01/11 22:58:30;;;;;;;8.80;2.55;;;;;;;7.68;86.44;100255.63;10404208;28;20556;-70
2023/01/11 23:03:31;;;;;;;9.88;2.33;;;;;;;7.67;86.29;100253.94;10398795;28;20147;-73
2023/01/11 23:08:39;;;;;;;9.35;3.40;;;;;;;7.67;86.33;100248.63;10397154;28;20053;-71
2023/01/11 23:13:54;;;;;;;7.53;1.92;;;;;;;7.61;86.41;100239.31;10396752;28;20080;-70
2023/01/11 23:18:55;;;;;;;5.10;1.53;;;;;;;7.66;86.59;100236.34;10393885;28;20099;-70
2023/01/11 23:23:58;;;;;;;7.80;2.13;;;;;;;7.63;86.22;100225.94;10396708;28;20115;-70
2023/01/11 23:29:00;;;;;;;6.93;1.90;;;;;;;7.65;86.12;100208.13;10398298;28;20061;-68
2023/01/11 23:34:03;;;;;;;6.65;2.35;;;;;;;7.68;86.24;100205.28;10393606;28;20072;-69
2023/01/11 23:39:06;;;;;;;9.23;2.65;;;;;;;7.77;85.42;100206.44;10395149;28;20570;-69
2023/01/11 23:44:10;;;;;;;6.75;2.53;;;;;;;7.77;84.87;100217.88;10409041;28;20131;-69
2023/01/11 23:49:14;;;;;;;6.80;2.22;;;;;;;7.78;84.77;100198.38;10392547;28;20065;-71
2023/01/11 23:54:16;;;;;;;8.45;2.22;;;;;;;7.87;84.48;100201.34;10397366;28;20277;-69
2023/01/11 23:59:17;;;;;;;5.85;2.38;;;;;;;7.88;84.26;100188.00;10395072;28;20049;-70
